CheckWX is a tool to help pilots better visualize weather data.  It is not intended as a substitute for an official pre-flight weather briefing.

03:25:05 UTC

WSSL METAR
Seletar Airport
Seletar, Singapore
Current

25 mins ago

WSSL 080300Z 09008KT 9999 VCSH FEW012 SCT017TCU FEW018CB 26/23 Q1013
Observed
Dec-8 @ 03:00 UTC
Wind
  • 090° at 8 KTS
Visibility
10,000+ meters
Flight Rules
VFR
Cloud Levels
  • Few at 1,200' AGL
  • Scattered at 1,700' AGL
  • Few at 1,800' AGL
Temperature
26°C / 79°F
Dewpoint
23°C / 73°F
Humidity
84%
Altimeter
29.91" Hg
Pressure
1012.92 hPa
Previous

49 mins ago

WSSL 080236Z 09010KT 9999 FEW012 FEW017TCU FEW018CB BKN150 26/23 Q1013
Observed
Dec-8 @ 02:36 UTC
Wind
  • 090° at 10 KTS
Visibility
10,000+ meters
Flight Rules
VFR
Cloud Levels
  • Few at 1,200' AGL
  • Few at 1,700' AGL
  • Few at 1,800' AGL
  • Broken at 15,000' AGL
Temperature
26°C / 79°F
Dewpoint
23°C / 73°F
Humidity
84%
Altimeter
29.91" Hg
Pressure
1012.92 hPa
Previous

1 hour ago

WSSL 080200Z 03007KT 9999 -SHRA FEW014 FEW018TCU FEW020CB BKN150 27/24 Q1013
Observed
Dec-8 @ 02:00 UTC
Wind
  • 030° at 7 KTS
Visibility
10,000+ meters
Flight Rules
VFR
Conditions
Light Rain
Cloud Levels
  • Few at 1,400' AGL
  • Few at 1,800' AGL
  • Few at 2,000' AGL
  • Broken at 15,000' AGL
Temperature
27°C / 81°F
Dewpoint
24°C / 75°F
Heat Index
31°C / 87°F
Humidity
84%
Altimeter
29.91" Hg
Pressure
1012.92 hPa